Terminal Aerodrome Forecast
Issued by NWS Pueblo, CO

Home | Current Version | Previous Version | Text Only | Print | Product List | Glossary On
Versions: 1 2 3 4 5 6 7 8 9 10 11 12 13 14 15 16 17 18 19
000
FTUS45 KPUB 231742
TAFPUB
TAF
KPUB 231742Z 2318/2418 29015G28KT P6SM SCT100 BKN200
     FM240100 34015G25KT P6SM VCTS SCT060CB BKN100
     FM240800 VRB06KT P6SM FEW100 SCT150=

USA.gov is the U.S. government's official web portal to all federal, state and local government web resources and services.